sensor_id;sensor_type;location;lat;lon;timestamp;P1;durP1;ratioP1;P2;durP2;ratioP2
76589;SDS011;65471;55.908;37.880;2023-04-02T00:00:26;107.20;;;34.47;;
76589;SDS011;65471;55.908;37.880;2023-04-02T00:07:52;119.90;;;36.80;;
76589;SDS011;65471;55.908;37.880;2023-04-02T00:10:31;143.98;;;40.15;;
76589;SDS011;65471;55.908;37.880;2023-04-02T00:15:37;149.07;;;39.97;;
76589;SDS011;65471;55.908;37.880;2023-04-02T00:18:05;123.22;;;36.42;;
76589;SDS011;65471;55.908;37.880;2023-04-02T00:20:34;139.57;;;39.85;;
76589;SDS011;65471;55.908;37.880;2023-04-02T00:23:04;137.23;;;41.95;;
76589;SDS011;65471;55.908;37.880;2023-04-02T00:25:36;160.43;;;41.40;;
76589;SDS011;65471;55.908;37.880;2023-04-02T00:28:11;191.15;;;40.05;;
76589;SDS011;65471;55.908;37.880;2023-04-02T00:30:50;186.43;;;41.78;;
76589;SDS011;65471;55.908;37.880;2023-04-02T00:33:25;708.90;;;55.53;;
76589;SDS011;65471;55.908;37.880;2023-04-02T00:35:54;180.30;;;41.38;;
76589;SDS011;65471;55.908;37.880;2023-04-02T00:38:31;161.93;;;41.05;;
76589;SDS011;65471;55.908;37.880;2023-04-02T00:41:03;213.50;;;36.13;;
76589;SDS011;65471;55.908;37.880;2023-04-02T00:43:34;186.77;;;43.92;;
76589;SDS011;65471;55.908;37.880;2023-04-02T00:46:03;185.13;;;47.00;;
76589;SDS011;65471;55.908;37.880;2023-04-02T00:48:38;214.40;;;48.83;;
76589;SDS011;65471;55.908;37.880;2023-04-02T00:51:15;217.50;;;50.58;;
76589;SDS011;65471;55.908;37.880;2023-04-02T00:53:47;212.13;;;49.15;;
76589;SDS011;65471;55.908;37.880;2023-04-02T01:01:24;193.63;;;41.72;;
76589;SDS011;65471;55.908;37.880;2023-04-02T01:06:27;280.27;;;49.38;;
76589;SDS011;65471;55.908;37.880;2023-04-02T01:16:57;191.70;;;43.95;;
76589;SDS011;65471;55.908;37.880;2023-04-02T01:24:46;301.58;;;57.67;;
76589;SDS011;65471;55.908;37.880;2023-04-02T01:27:17;434.00;;;61.40;;
76589;SDS011;65471;55.908;37.880;2023-04-02T01:29:46;298.90;;;58.40;;
76589;SDS011;65471;55.908;37.880;2023-04-02T01:32:19;256.85;;;55.13;;
76589;SDS011;65471;55.908;37.880;2023-04-02T01:34:49;299.23;;;60.35;;
76589;SDS011;65471;55.908;37.880;2023-04-02T01:40:32;415.20;;;64.75;;
76589;SDS011;65471;55.908;37.880;2023-04-02T01:45:45;346.48;;;64.60;;
76589;SDS011;65471;55.908;37.880;2023-04-02T01:48:23;428.13;;;66.43;;
76589;SDS011;65471;55.908;37.880;2023-04-02T01:50:58;359.67;;;61.90;;
76589;SDS011;65471;55.908;37.880;2023-04-02T01:53:29;352.10;;;62.10;;
76589;SDS011;65471;55.908;37.880;2023-04-02T01:55:57;388.25;;;60.35;;
76589;SDS011;65471;55.908;37.880;2023-04-02T01:58:27;380.77;;;61.92;;
76589;SDS011;65471;55.908;37.880;2023-04-02T02:03:38;355.35;;;63.70;;
76589;SDS011;65471;55.908;37.880;2023-04-02T02:06:08;300.40;;;56.55;;
76589;SDS011;65471;55.908;37.880;2023-04-02T02:08:40;404.23;;;66.85;;
76589;SDS011;65471;55.908;37.880;2023-04-02T02:11:11;373.98;;;64.60;;
76589;SDS011;65471;55.908;37.880;2023-04-02T02:13:52;401.40;;;67.95;;
76589;SDS011;65471;55.908;37.880;2023-04-02T02:16:24;359.98;;;62.60;;
76589;SDS011;65471;55.908;37.880;2023-04-02T02:18:55;426.77;;;66.20;;
76589;SDS011;65471;55.908;37.880;2023-04-02T02:24:27;1021.47;;;76.40;;
76589;SDS011;65471;55.908;37.880;2023-04-02T02:29:39;434.17;;;58.85;;
76589;SDS011;65471;55.908;37.880;2023-04-02T02:32:10;342.90;;;60.05;;
76589;SDS011;65471;55.908;37.880;2023-04-02T02:34:45;398.33;;;63.92;;
76589;SDS011;65471;55.908;37.880;2023-04-02T02:37:19;321.48;;;62.10;;
76589;SDS011;65471;55.908;37.880;2023-04-02T02:39:53;433.83;;;66.40;;
76589;SDS011;65471;55.908;37.880;2023-04-02T02:42:26;399.90;;;62.90;;
76589;SDS011;65471;55.908;37.880;2023-04-02T02:44:58;362.80;;;63.78;;
76589;SDS011;65471;55.908;37.880;2023-04-02T02:47:28;337.90;;;60.60;;
76589;SDS011;65471;55.908;37.880;2023-04-02T02:49:59;322.40;;;56.15;;
76589;SDS011;65471;55.908;37.880;2023-04-02T02:52:30;392.05;;;60.42;;
76589;SDS011;65471;55.908;37.880;2023-04-02T02:57:47;336.17;;;59.15;;
76589;SDS011;65471;55.908;37.880;2023-04-02T03:00:18;338.85;;;58.42;;
76589;SDS011;65471;55.908;37.880;2023-04-02T03:02:46;303.80;;;51.75;;
76589;SDS011;65471;55.908;37.880;2023-04-02T03:05:15;316.50;;;55.10;;
76589;SDS011;65471;55.908;37.880;2023-04-02T03:07:46;315.92;;;58.08;;
76589;SDS011;65471;55.908;37.880;2023-04-02T03:10:16;420.52;;;61.67;;
76589;SDS011;65471;55.908;37.880;2023-04-02T03:15:39;356.17;;;57.60;;
76589;SDS011;65471;55.908;37.880;2023-04-02T03:20:54;343.25;;;56.92;;
76589;SDS011;65471;55.908;37.880;2023-04-02T03:28:26;349.92;;;59.65;;
76589;SDS011;65471;55.908;37.880;2023-04-02T03:31:01;284.45;;;52.40;;
76589;SDS011;65471;55.908;37.880;2023-04-02T03:33:39;305.60;;;56.50;;
76589;SDS011;65471;55.908;37.880;2023-04-02T03:38:42;189.68;;;43.10;;
76589;SDS011;65471;55.908;37.880;2023-04-02T03:43:58;268.75;;;53.30;;
76589;SDS011;65471;55.908;37.880;2023-04-02T03:49:10;328.35;;;61.22;;
76589;SDS011;65471;55.908;37.880;2023-04-02T03:54:37;308.63;;;60.03;;
76589;SDS011;65471;55.908;37.880;2023-04-02T03:57:05;274.70;;;56.80;;
76589;SDS011;65471;55.908;37.880;2023-04-02T03:59:48;346.50;;;60.53;;
76589;SDS011;65471;55.908;37.880;2023-04-02T04:05:30;429.88;;;67.50;;
76589;SDS011;65471;55.908;37.880;2023-04-02T04:08:02;329.65;;;63.53;;
76589;SDS011;65471;55.908;37.880;2023-04-02T04:10:32;152.85;;;41.72;;
76589;SDS011;65471;55.908;37.880;2023-04-02T04:13:01;344.30;;;66.07;;
76589;SDS011;65471;55.908;37.880;2023-04-02T04:15:36;321.98;;;62.78;;
76589;SDS011;65471;55.908;37.880;2023-04-02T04:18:15;341.70;;;64.97;;
76589;SDS011;65471;55.908;37.880;2023-04-02T04:21:01;345.45;;;62.80;;
76589;SDS011;65471;55.908;37.880;2023-04-02T04:23:56;319.08;;;60.88;;
76589;SDS011;65471;55.908;37.880;2023-04-02T04:26:38;319.25;;;61.05;;
76589;SDS011;65471;55.908;37.880;2023-04-02T04:29:26;271.17;;;57.88;;
76589;SDS011;65471;55.908;37.880;2023-04-02T04:32:33;237.02;;;50.10;;
76589;SDS011;65471;55.908;37.880;2023-04-02T04:35:06;290.88;;;57.78;;
76589;SDS011;65471;55.908;37.880;2023-04-02T04:37:53;303.52;;;60.58;;
76589;SDS011;65471;55.908;37.880;2023-04-02T04:40:45;264.67;;;54.70;;
76589;SDS011;65471;55.908;37.880;2023-04-02T04:43:24;257.85;;;51.97;;
76589;SDS011;65471;55.908;37.880;2023-04-02T04:45:54;250.32;;;56.65;;
76589;SDS011;65471;55.908;37.880;2023-04-02T04:48:35;265.23;;;57.20;;
76589;SDS011;65471;55.908;37.880;2023-04-02T04:53:51;211.48;;;51.15;;
76589;SDS011;65471;55.908;37.880;2023-04-02T04:56:22;280.80;;;56.17;;
76589;SDS011;65471;55.908;37.880;2023-04-02T05:04:34;267.77;;;58.22;;
76589;SDS011;65471;55.908;37.880;2023-04-02T05:09:37;257.55;;;60.42;;
76589;SDS011;65471;55.908;37.880;2023-04-02T05:12:20;273.38;;;57.55;;
76589;SDS011;65471;55.908;37.880;2023-04-02T05:15:05;218.63;;;54.03;;
76589;SDS011;65471;55.908;37.880;2023-04-02T05:17:39;210.48;;;51.70;;
76589;SDS011;65471;55.908;37.880;2023-04-02T05:22:44;248.93;;;57.65;;
76589;SDS011;65471;55.908;37.880;2023-04-02T05:36:00;205.52;;;49.72;;
76589;SDS011;65471;55.908;37.880;2023-04-02T05:38:28;232.52;;;54.45;;
76589;SDS011;65471;55.908;37.880;2023-04-02T05:41:02;212.93;;;54.08;;
76589;SDS011;65471;55.908;37.880;2023-04-02T05:43:34;185.65;;;51.05;;
76589;SDS011;65471;55.908;37.880;2023-04-02T05:46:06;184.75;;;47.80;;
76589;SDS011;65471;55.908;37.880;2023-04-02T05:48:56;206.90;;;52.60;;
76589;SDS011;65471;55.908;37.880;2023-04-02T05:51:27;159.68;;;46.25;;
76589;SDS011;65471;55.908;37.880;2023-04-02T05:54:02;199.40;;;54.85;;
76589;SDS011;65471;55.908;37.880;2023-04-02T05:56:40;205.00;;;55.33;;
76589;SDS011;65471;55.908;37.880;2023-04-02T05:59:22;199.88;;;56.25;;
76589;SDS011;65471;55.908;37.880;2023-04-02T06:02:26;145.25;;;42.40;;
76589;SDS011;65471;55.908;37.880;2023-04-02T06:08:02;162.32;;;47.35;;
76589;SDS011;65471;55.908;37.880;2023-04-02T06:10:34;163.68;;;44.47;;
76589;SDS011;65471;55.908;37.880;2023-04-02T06:13:10;173.82;;;43.47;;
76589;SDS011;65471;55.908;37.880;2023-04-02T06:15:43;172.02;;;46.47;;
76589;SDS011;65471;55.908;37.880;2023-04-02T06:18:17;167.55;;;44.63;;
76589;SDS011;65471;55.908;37.880;2023-04-02T06:20:48;166.75;;;45.53;;
76589;SDS011;65471;55.908;37.880;2023-04-02T06:23:19;158.50;;;45.25;;
76589;SDS011;65471;55.908;37.880;2023-04-02T06:25:52;139.52;;;39.58;;
76589;SDS011;65471;55.908;37.880;2023-04-02T06:28:30;143.38;;;43.33;;
76589;SDS011;65471;55.908;37.880;2023-04-02T06:33:33;134.02;;;39.55;;
76589;SDS011;65471;55.908;37.880;2023-04-02T06:36:00;137.60;;;41.15;;
76589;SDS011;65471;55.908;37.880;2023-04-02T06:38:29;152.73;;;41.72;;
76589;SDS011;65471;55.908;37.880;2023-04-02T06:41:02;131.45;;;40.63;;
76589;SDS011;65471;55.908;37.880;2023-04-02T06:43:45;130.80;;;41.53;;
76589;SDS011;65471;55.908;37.880;2023-04-02T06:48:49;121.72;;;39.00;;
76589;SDS011;65471;55.908;37.880;2023-04-02T06:51:22;122.28;;;39.55;;
76589;SDS011;65471;55.908;37.880;2023-04-02T06:53:52;115.05;;;35.78;;
76589;SDS011;65471;55.908;37.880;2023-04-02T06:59:15;109.07;;;35.88;;
76589;SDS011;65471;55.908;37.880;2023-04-02T07:04:22;115.90;;;37.42;;
76589;SDS011;65471;55.908;37.880;2023-04-02T07:06:50;112.25;;;36.08;;
76589;SDS011;65471;55.908;37.880;2023-04-02T07:09:17;109.43;;;35.80;;
76589;SDS011;65471;55.908;37.880;2023-04-02T07:11:44;94.68;;;35.05;;
76589;SDS011;65471;55.908;37.880;2023-04-02T07:14:12;103.57;;;35.10;;
76589;SDS011;65471;55.908;37.880;2023-04-02T07:16:39;90.68;;;34.28;;
76589;SDS011;65471;55.908;37.880;2023-04-02T07:19:14;104.10;;;33.63;;
76589;SDS011;65471;55.908;37.880;2023-04-02T07:21:45;95.68;;;31.88;;
76589;SDS011;65471;55.908;37.880;2023-04-02T07:24:12;84.97;;;31.77;;
76589;SDS011;65471;55.908;37.880;2023-04-02T07:26:39;85.00;;;30.67;;
76589;SDS011;65471;55.908;37.880;2023-04-02T07:29:07;87.78;;;32.58;;
76589;SDS011;65471;55.908;37.880;2023-04-02T07:31:39;64.32;;;27.30;;
76589;SDS011;65471;55.908;37.880;2023-04-02T07:34:12;63.40;;;27.77;;
76589;SDS011;65471;55.908;37.880;2023-04-02T07:36:39;67.20;;;27.10;;
76589;SDS011;65471;55.908;37.880;2023-04-02T07:39:05;70.57;;;26.65;;
76589;SDS011;65471;55.908;37.880;2023-04-02T07:41:32;68.88;;;25.95;;
76589;SDS011;65471;55.908;37.880;2023-04-02T07:43:59;63.03;;;26.05;;
76589;SDS011;65471;55.908;37.880;2023-04-02T07:46:26;49.25;;;19.35;;
76589;SDS011;65471;55.908;37.880;2023-04-02T07:48:53;67.43;;;25.75;;
76589;SDS011;65471;55.908;37.880;2023-04-02T07:51:21;62.97;;;25.80;;
76589;SDS011;65471;55.908;37.880;2023-04-02T07:53:52;55.40;;;23.92;;
76589;SDS011;65471;55.908;37.880;2023-04-02T07:56:22;64.90;;;23.50;;
76589;SDS011;65471;55.908;37.880;2023-04-02T07:58:50;66.43;;;24.38;;
76589;SDS011;65471;55.908;37.880;2023-04-02T08:01:18;66.30;;;24.92;;
76589;SDS011;65471;55.908;37.880;2023-04-02T08:03:46;64.32;;;24.65;;
76589;SDS011;65471;55.908;37.880;2023-04-02T08:06:13;66.60;;;26.45;;
76589;SDS011;65471;55.908;37.880;2023-04-02T08:08:40;54.22;;;19.48;;
76589;SDS011;65471;55.908;37.880;2023-04-02T08:11:07;57.75;;;25.25;;
76589;SDS011;65471;55.908;37.880;2023-04-02T08:13:35;64.75;;;24.83;;
76589;SDS011;65471;55.908;37.880;2023-04-02T08:16:02;69.80;;;26.02;;
76589;SDS011;65471;55.908;37.880;2023-04-02T08:18:30;60.45;;;24.40;;
76589;SDS011;65471;55.908;37.880;2023-04-02T08:20:57;57.28;;;23.55;;
76589;SDS011;65471;55.908;37.880;2023-04-02T08:23:25;58.72;;;23.83;;
76589;SDS011;65471;55.908;37.880;2023-04-02T08:25:53;58.05;;;22.17;;
76589;SDS011;65471;55.908;37.880;2023-04-02T08:28:21;59.27;;;24.80;;
76589;SDS011;65471;55.908;37.880;2023-04-02T08:30:48;68.70;;;24.27;;
76589;SDS011;65471;55.908;37.880;2023-04-02T08:33:15;68.50;;;25.83;;
76589;SDS011;65471;55.908;37.880;2023-04-02T08:35:44;67.15;;;25.70;;
76589;SDS011;65471;55.908;37.880;2023-04-02T08:38:15;61.63;;;24.85;;
76589;SDS011;65471;55.908;37.880;2023-04-02T08:40:45;59.90;;;25.20;;
76589;SDS011;65471;55.908;37.880;2023-04-02T08:48:50;75.93;;;27.48;;
76589;SDS011;65471;55.908;37.880;2023-04-02T08:51:22;53.80;;;24.13;;
76589;SDS011;65471;55.908;37.880;2023-04-02T08:59:33;62.33;;;25.10;;
76589;SDS011;65471;55.908;37.880;2023-04-02T09:04:51;62.13;;;26.75;;
76589;SDS011;65471;55.908;37.880;2023-04-02T09:07:19;56.70;;;25.88;;
76589;SDS011;65471;55.908;37.880;2023-04-02T09:09:46;72.25;;;27.05;;
76589;SDS011;65471;55.908;37.880;2023-04-02T09:12:17;71.57;;;26.25;;
76589;SDS011;65471;55.908;37.880;2023-04-02T09:14:53;71.45;;;26.63;;
76589;SDS011;65471;55.908;37.880;2023-04-02T09:17:40;62.85;;;26.13;;
76589;SDS011;65471;55.908;37.880;2023-04-02T09:22:51;60.55;;;25.90;;
76589;SDS011;65471;55.908;37.880;2023-04-02T09:25:21;73.57;;;29.77;;
76589;SDS011;65471;55.908;37.880;2023-04-02T09:28:03;62.08;;;25.35;;
76589;SDS011;65471;55.908;37.880;2023-04-02T09:33:01;56.55;;;23.48;;
76589;SDS011;65471;55.908;37.880;2023-04-02T09:35:37;68.45;;;26.52;;
76589;SDS011;65471;55.908;37.880;2023-04-02T09:40:59;65.32;;;25.70;;
76589;SDS011;65471;55.908;37.880;2023-04-02T09:43:32;70.40;;;24.60;;
76589;SDS011;65471;55.908;37.880;2023-04-02T09:48:50;63.20;;;24.45;;
76589;SDS011;65471;55.908;37.880;2023-04-02T09:51:24;68.70;;;27.27;;
76589;SDS011;65471;55.908;37.880;2023-04-02T09:56:28;79.85;;;28.60;;
76589;SDS011;65471;55.908;37.880;2023-04-02T10:04:45;62.28;;;24.40;;
76589;SDS011;65471;55.908;37.880;2023-04-02T10:07:40;68.38;;;25.52;;
76589;SDS011;65471;55.908;37.880;2023-04-02T10:10:20;60.50;;;24.73;;
76589;SDS011;65471;55.908;37.880;2023-04-02T10:12:58;62.28;;;24.90;;
76589;SDS011;65471;55.908;37.880;2023-04-02T10:21:15;71.85;;;26.02;;
76589;SDS011;65471;55.908;37.880;2023-04-02T10:23:44;62.47;;;25.23;;
76589;SDS011;65471;55.908;37.880;2023-04-02T10:40:13;56.58;;;22.58;;
76589;SDS011;65471;55.908;37.880;2023-04-02T10:45:45;59.15;;;22.90;;
76589;SDS011;65471;55.908;37.880;2023-04-02T10:48:44;51.58;;;23.52;;
76589;SDS011;65471;55.908;37.880;2023-04-02T10:56:56;48.20;;;21.50;;
76589;SDS011;65471;55.908;37.880;2023-04-02T10:59:30;40.20;;;17.73;;
76589;SDS011;65471;55.908;37.880;2023-04-02T11:02:00;43.40;;;21.35;;
76589;SDS011;65471;55.908;37.880;2023-04-02T11:04:43;42.15;;;20.60;;
76589;SDS011;65471;55.908;37.880;2023-04-02T11:07:21;47.17;;;20.45;;
76589;SDS011;65471;55.908;37.880;2023-04-02T11:09:53;65.18;;;21.20;;
76589;SDS011;65471;55.908;37.880;2023-04-02T11:12:24;49.25;;;21.65;;
76589;SDS011;65471;55.908;37.880;2023-04-02T11:15:12;58.28;;;22.20;;
76589;SDS011;65471;55.908;37.880;2023-04-02T11:17:42;52.78;;;22.20;;
76589;SDS011;65471;55.908;37.880;2023-04-02T11:23:11;46.97;;;21.30;;
76589;SDS011;65471;55.908;37.880;2023-04-02T11:25:40;42.58;;;20.55;;
76589;SDS011;65471;55.908;37.880;2023-04-02T11:30:53;49.92;;;19.75;;
76589;SDS011;65471;55.908;37.880;2023-04-02T11:36:07;47.17;;;21.00;;
76589;SDS011;65471;55.908;37.880;2023-04-02T11:39:09;52.67;;;21.20;;
76589;SDS011;65471;55.908;37.880;2023-04-02T11:44:28;49.95;;;19.13;;
76589;SDS011;65471;55.908;37.880;2023-04-02T11:47:28;45.35;;;19.55;;
76589;SDS011;65471;55.908;37.880;2023-04-02T12:08:58;46.47;;;18.25;;
76589;SDS011;65471;55.908;37.880;2023-04-02T12:11:40;47.17;;;20.33;;
76589;SDS011;65471;55.908;37.880;2023-04-02T12:22:35;49.92;;;19.33;;
76589;SDS011;65471;55.908;37.880;2023-04-02T12:30:19;52.67;;;19.30;;
76589;SDS011;65471;55.908;37.880;2023-04-02T12:32:49;53.17;;;20.55;;
76589;SDS011;65471;55.908;37.880;2023-04-02T12:35:34;49.17;;;20.55;;
76589;SDS011;65471;55.908;37.880;2023-04-02T12:38:01;48.55;;;19.80;;
76589;SDS011;65471;55.908;37.880;2023-04-02T12:40:29;49.63;;;20.27;;
76589;SDS011;65471;55.908;37.880;2023-04-02T12:42:55;60.45;;;21.05;;
76589;SDS011;65471;55.908;37.880;2023-04-02T12:45:26;51.75;;;20.38;;
76589;SDS011;65471;55.908;37.880;2023-04-02T12:47:56;39.97;;;16.40;;
76589;SDS011;65471;55.908;37.880;2023-04-02T12:50:23;50.30;;;18.95;;
76589;SDS011;65471;55.908;37.880;2023-04-02T12:52:51;55.70;;;19.27;;
76589;SDS011;65471;55.908;37.880;2023-04-02T12:55:21;44.22;;;19.80;;
76589;SDS011;65471;55.908;37.880;2023-04-02T12:57:57;63.47;;;22.85;;
76589;SDS011;65471;55.908;37.880;2023-04-02T13:00:27;52.42;;;21.85;;
76589;SDS011;65471;55.908;37.880;2023-04-02T13:08:13;55.53;;;20.83;;
76589;SDS011;65471;55.908;37.880;2023-04-02T13:10:43;65.10;;;22.17;;
76589;SDS011;65471;55.908;37.880;2023-04-02T13:13:16;71.45;;;22.65;;
76589;SDS011;65471;55.908;37.880;2023-04-02T13:15:58;68.65;;;24.02;;
76589;SDS011;65471;55.908;37.880;2023-04-02T13:18:31;57.28;;;22.00;;
76589;SDS011;65471;55.908;37.880;2023-04-02T13:21:05;69.45;;;26.27;;
76589;SDS011;65471;55.908;37.880;2023-04-02T13:23:54;59.35;;;24.10;;
76589;SDS011;65471;55.908;37.880;2023-04-02T13:26:21;59.92;;;24.45;;
76589;SDS011;65471;55.908;37.880;2023-04-02T13:31:22;58.72;;;24.13;;
76589;SDS011;65471;55.908;37.880;2023-04-02T13:33:50;62.35;;;24.08;;
76589;SDS011;65471;55.908;37.880;2023-04-02T13:36:17;66.13;;;23.02;;
76589;SDS011;65471;55.908;37.880;2023-04-02T13:38:43;72.65;;;21.80;;
76589;SDS011;65471;55.908;37.880;2023-04-02T13:43:53;70.03;;;21.15;;
76589;SDS011;65471;55.908;37.880;2023-04-02T13:46:23;55.10;;;21.33;;
76589;SDS011;65471;55.908;37.880;2023-04-02T13:48:52;55.95;;;19.67;;
76589;SDS011;65471;55.908;37.880;2023-04-02T13:51:21;57.72;;;20.33;;
76589;SDS011;65471;55.908;37.880;2023-04-02T13:53:53;60.95;;;21.38;;
76589;SDS011;65471;55.908;37.880;2023-04-02T13:56:23;63.92;;;21.08;;
76589;SDS011;65471;55.908;37.880;2023-04-02T13:58:50;61.13;;;22.55;;
76589;SDS011;65471;55.908;37.880;2023-04-02T14:01:18;64.90;;;22.02;;
76589;SDS011;65471;55.908;37.880;2023-04-02T14:03:48;64.07;;;21.80;;
76589;SDS011;65471;55.908;37.880;2023-04-02T14:14:43;75.68;;;22.90;;
76589;SDS011;65471;55.908;37.880;2023-04-02T14:17:46;62.97;;;21.60;;
76589;SDS011;65471;55.908;37.880;2023-04-02T14:25:39;64.88;;;23.70;;
76589;SDS011;65471;55.908;37.880;2023-04-02T14:31:37;62.72;;;22.15;;
76589;SDS011;65471;55.908;37.880;2023-04-02T14:34:19;63.17;;;22.25;;
76589;SDS011;65471;55.908;37.880;2023-04-02T14:42:18;59.35;;;21.25;;
76589;SDS011;65471;55.908;37.880;2023-04-02T14:45:11;72.72;;;22.20;;
76589;SDS011;65471;55.908;37.880;2023-04-02T14:48:05;57.45;;;20.70;;
76589;SDS011;65471;55.908;37.880;2023-04-02T14:51:08;64.35;;;21.40;;
76589;SDS011;65471;55.908;37.880;2023-04-02T14:54:06;55.10;;;22.08;;
76589;SDS011;65471;55.908;37.880;2023-04-02T14:56:49;59.88;;;21.15;;
76589;SDS011;65471;55.908;37.880;2023-04-02T15:02:13;70.72;;;22.02;;
76589;SDS011;65471;55.908;37.880;2023-04-02T15:04:51;60.95;;;21.63;;
76589;SDS011;65471;55.908;37.880;2023-04-02T15:07:35;56.58;;;22.13;;
76589;SDS011;65471;55.908;37.880;2023-04-02T15:10:19;49.17;;;22.35;;
76589;SDS011;65471;55.908;37.880;2023-04-02T15:12:52;66.40;;;22.38;;
76589;SDS011;65471;55.908;37.880;2023-04-02T15:18:10;58.37;;;21.13;;
76589;SDS011;65471;55.908;37.880;2023-04-02T15:26:18;69.45;;;22.85;;
76589;SDS011;65471;55.908;37.880;2023-04-02T15:31:57;78.28;;;21.92;;
76589;SDS011;65471;55.908;37.880;2023-04-02T15:42:57;69.40;;;21.33;;
76589;SDS011;65471;55.908;37.880;2023-04-02T15:45:32;62.88;;;21.92;;
76589;SDS011;65471;55.908;37.880;2023-04-02T15:53:29;68.95;;;23.17;;
76589;SDS011;65471;55.908;37.880;2023-04-02T15:58:55;69.68;;;23.67;;
76589;SDS011;65471;55.908;37.880;2023-04-02T16:10:23;70.72;;;23.92;;
76589;SDS011;65471;55.908;37.880;2023-04-02T16:13:29;79.10;;;23.42;;
76589;SDS011;65471;55.908;37.880;2023-04-02T16:16:02;72.20;;;22.63;;
76589;SDS011;65471;55.908;37.880;2023-04-02T16:18:35;79.70;;;25.05;;
76589;SDS011;65471;55.908;37.880;2023-04-02T16:21:11;76.47;;;24.95;;
76589;SDS011;65471;55.908;37.880;2023-04-02T16:23:43;67.03;;;25.08;;
76589;SDS011;65471;55.908;37.880;2023-04-02T16:31:27;61.97;;;24.60;;
76589;SDS011;65471;55.908;37.880;2023-04-02T16:39:26;68.95;;;25.33;;
76589;SDS011;65471;55.908;37.880;2023-04-02T16:42:02;69.78;;;24.80;;
76589;SDS011;65471;55.908;37.880;2023-04-02T16:47:27;72.60;;;23.88;;
76589;SDS011;65471;55.908;37.880;2023-04-02T17:01:04;64.80;;;23.65;;
76589;SDS011;65471;55.908;37.880;2023-04-02T17:06:27;71.40;;;24.40;;
76589;SDS011;65471;55.908;37.880;2023-04-02T17:09:37;61.92;;;24.63;;
76589;SDS011;65471;55.908;37.880;2023-04-02T17:12:14;89.95;;;26.10;;
76589;SDS011;65471;55.908;37.880;2023-04-02T17:17:17;70.32;;;25.08;;
76589;SDS011;65471;55.908;37.880;2023-04-02T17:19:46;68.88;;;26.00;;
76589;SDS011;65471;55.908;37.880;2023-04-02T17:22:17;66.20;;;25.00;;
76589;SDS011;65471;55.908;37.880;2023-04-02T17:24:50;63.65;;;23.90;;
76589;SDS011;65471;55.908;37.880;2023-04-02T17:27:55;67.50;;;27.15;;
76589;SDS011;65471;55.908;37.880;2023-04-02T17:30:17;73.43;;;25.35;;
76589;SDS011;65471;55.908;37.880;2023-04-02T17:32:49;62.05;;;25.50;;
76589;SDS011;65471;55.908;37.880;2023-04-02T17:35:41;65.75;;;25.75;;
76589;SDS011;65471;55.908;37.880;2023-04-02T17:52:13;80.20;;;26.25;;
76589;SDS011;65471;55.908;37.880;2023-04-02T18:06:40;62.70;;;24.85;;
76589;SDS011;65471;55.908;37.880;2023-04-02T18:09:02;63.38;;;24.90;;
76589;SDS011;65471;55.908;37.880;2023-04-02T18:30:52;77.80;;;25.73;;
76589;SDS011;65471;55.908;37.880;2023-04-02T18:36:14;63.58;;;22.73;;
76589;SDS011;65471;55.908;37.880;2023-04-02T18:38:50;62.00;;;25.23;;
76589;SDS011;65471;55.908;37.880;2023-04-02T18:41:33;62.03;;;23.35;;
76589;SDS011;65471;55.908;37.880;2023-04-02T18:47:07;49.97;;;21.77;;
76589;SDS011;65471;55.908;37.880;2023-04-02T18:49:47;47.90;;;22.83;;
76589;SDS011;65471;55.908;37.880;2023-04-02T18:52:22;51.33;;;21.17;;
76589;SDS011;65471;55.908;37.880;2023-04-02T18:55:00;52.23;;;22.53;;
76589;SDS011;65471;55.908;37.880;2023-04-02T18:57:32;44.83;;;19.67;;
76589;SDS011;65471;55.908;37.880;2023-04-02T19:05:16;49.63;;;20.02;;
76589;SDS011;65471;55.908;37.880;2023-04-02T19:07:47;50.88;;;19.85;;
76589;SDS011;65471;55.908;37.880;2023-04-02T19:10:30;56.03;;;19.45;;
76589;SDS011;65471;55.908;37.880;2023-04-02T19:13:00;44.35;;;19.52;;
76589;SDS011;65471;55.908;37.880;2023-04-02T19:21:12;46.30;;;19.48;;
76589;SDS011;65471;55.908;37.880;2023-04-02T19:27:07;63.55;;;21.00;;
76589;SDS011;65471;55.908;37.880;2023-04-02T19:43:22;51.83;;;20.50;;
76589;SDS011;65471;55.908;37.880;2023-04-02T19:45:49;45.17;;;20.45;;
76589;SDS011;65471;55.908;37.880;2023-04-02T19:48:25;46.28;;;19.70;;
76589;SDS011;65471;55.908;37.880;2023-04-02T19:50:53;44.15;;;19.17;;
76589;SDS011;65471;55.908;37.880;2023-04-02T19:53:20;55.60;;;21.98;;
76589;SDS011;65471;55.908;37.880;2023-04-02T19:55:47;45.78;;;20.00;;
76589;SDS011;65471;55.908;37.880;2023-04-02T20:01:03;47.42;;;20.20;;
76589;SDS011;65471;55.908;37.880;2023-04-02T20:03:31;57.50;;;19.17;;
76589;SDS011;65471;55.908;37.880;2023-04-02T20:05:58;45.80;;;20.52;;
76589;SDS011;65471;55.908;37.880;2023-04-02T20:08:25;47.17;;;20.15;;
76589;SDS011;65471;55.908;37.880;2023-04-02T20:10:54;39.15;;;19.45;;
76589;SDS011;65471;55.908;37.880;2023-04-02T20:13:23;42.58;;;20.13;;
76589;SDS011;65471;55.908;37.880;2023-04-02T20:15:50;40.00;;;19.13;;
76589;SDS011;65471;55.908;37.880;2023-04-02T20:18:17;46.38;;;18.92;;
76589;SDS011;65471;55.908;37.880;2023-04-02T20:20:46;38.00;;;18.30;;
76589;SDS011;65471;55.908;37.880;2023-04-02T20:23:14;38.63;;;17.80;;
76589;SDS011;65471;55.908;37.880;2023-04-02T20:25:45;39.90;;;18.83;;
76589;SDS011;65471;55.908;37.880;2023-04-02T20:28:13;36.55;;;17.73;;
76589;SDS011;65471;55.908;37.880;2023-04-02T20:30:40;45.15;;;18.20;;
76589;SDS011;65471;55.908;37.880;2023-04-02T20:33:07;46.08;;;18.75;;
76589;SDS011;65471;55.908;37.880;2023-04-02T20:35:34;48.25;;;19.83;;
76589;SDS011;65471;55.908;37.880;2023-04-02T20:38:03;39.10;;;18.13;;
76589;SDS011;65471;55.908;37.880;2023-04-02T20:40:32;40.20;;;18.02;;
76589;SDS011;65471;55.908;37.880;2023-04-02T20:42:59;45.67;;;19.23;;
76589;SDS011;65471;55.908;37.880;2023-04-02T20:45:26;56.15;;;20.90;;
76589;SDS011;65471;55.908;37.880;2023-04-02T20:47:54;36.58;;;17.70;;
76589;SDS011;65471;55.908;37.880;2023-04-02T20:50:22;48.65;;;18.40;;
76589;SDS011;65471;55.908;37.880;2023-04-02T20:52:49;50.28;;;20.70;;
76589;SDS011;65471;55.908;37.880;2023-04-02T20:55:16;52.55;;;19.23;;
76589;SDS011;65471;55.908;37.880;2023-04-02T20:57:43;51.30;;;20.98;;
76589;SDS011;65471;55.908;37.880;2023-04-02T21:00:10;50.13;;;20.88;;
76589;SDS011;65471;55.908;37.880;2023-04-02T21:02:38;61.75;;;21.02;;
76589;SDS011;65471;55.908;37.880;2023-04-02T21:05:05;45.53;;;20.00;;
76589;SDS011;65471;55.908;37.880;2023-04-02T21:07:32;47.80;;;20.05;;
76589;SDS011;65471;55.908;37.880;2023-04-02T21:09:59;53.75;;;20.63;;
76589;SDS011;65471;55.908;37.880;2023-04-02T21:12:27;47.55;;;19.52;;
76589;SDS011;65471;55.908;37.880;2023-04-02T21:14:54;56.00;;;21.00;;